sensor_id;sensor_type;location;lat;lon;timestamp;temperature;humidity
1137;DHT22;557;48.466;7.950;2022-11-04T00:02:26;11.30;99.90
1137;DHT22;557;48.466;7.950;2022-11-04T00:05:11;11.30;99.90
1137;DHT22;557;48.466;7.950;2022-11-04T00:07:56;11.30;99.90
1137;DHT22;557;48.466;7.950;2022-11-04T00:11:01;11.40;99.90
1137;DHT22;557;48.466;7.950;2022-11-04T00:14:05;11.30;99.90
1137;DHT22;557;48.466;7.950;2022-11-04T00:16:51;11.30;99.90
1137;DHT22;557;48.466;7.950;2022-11-04T00:19:55;11.20;99.90
1137;DHT22;557;48.466;7.950;2022-11-04T00:23:09;11.30;99.90
1137;DHT22;557;48.466;7.950;2022-11-04T00:26:28;11.30;99.90
1137;DHT22;557;48.466;7.950;2022-11-04T00:29:31;11.30;99.90
1137;DHT22;557;48.466;7.950;2022-11-04T00:32:17;11.20;99.90
1137;DHT22;557;48.466;7.950;2022-11-04T00:35:21;11.20;99.90
1137;DHT22;557;48.466;7.950;2022-11-04T00:38:07;11.20;99.90
1137;DHT22;557;48.466;7.950;2022-11-04T00:40:52;11.20;99.90
1137;DHT22;557;48.466;7.950;2022-11-04T00:43:39;11.20;99.90
1137;DHT22;557;48.466;7.950;2022-11-04T00:46:26;11.20;99.90
1137;DHT22;557;48.466;7.950;2022-11-04T00:49:12;11.10;99.90
1137;DHT22;557;48.466;7.950;2022-11-04T00:51:58;11.10;99.90
1137;DHT22;557;48.466;7.950;2022-11-04T00:54:44;11.00;99.90
1137;DHT22;557;48.466;7.950;2022-11-04T00:57:29;11.00;99.90
1137;DHT22;557;48.466;7.950;2022-11-04T01:00:16;11.00;99.90
1137;DHT22;557;48.466;7.950;2022-11-04T01:03:03;10.90;99.90
1137;DHT22;557;48.466;7.950;2022-11-04T01:05:49;10.80;99.90
1137;DHT22;557;48.466;7.950;2022-11-04T01:08:34;10.80;99.90
1137;DHT22;557;48.466;7.950;2022-11-04T01:11:20;10.70;99.90
1137;DHT22;557;48.466;7.950;2022-11-04T01:14:05;10.70;99.90
1137;DHT22;557;48.466;7.950;2022-11-04T01:16:52;10.70;99.90
1137;DHT22;557;48.466;7.950;2022-11-04T01:19:37;10.70;99.90
1137;DHT22;557;48.466;7.950;2022-11-04T01:22:23;10.70;99.90
1137;DHT22;557;48.466;7.950;2022-11-04T01:25:09;10.60;99.90
1137;DHT22;557;48.466;7.950;2022-11-04T01:27:55;10.60;99.90
1137;DHT22;557;48.466;7.950;2022-11-04T01:30:40;10.60;99.90
1137;DHT22;557;48.466;7.950;2022-11-04T01:33:27;10.50;99.90
1137;DHT22;557;48.466;7.950;2022-11-04T01:36:13;10.50;99.90
1137;DHT22;557;48.466;7.950;2022-11-04T01:38:59;10.50;99.90
1137;DHT22;557;48.466;7.950;2022-11-04T01:41:44;10.50;99.90
1137;DHT22;557;48.466;7.950;2022-11-04T01:44:51;10.50;99.90
1137;DHT22;557;48.466;7.950;2022-11-04T01:47:40;10.50;99.90
1137;DHT22;557;48.466;7.950;2022-11-04T01:50:29;10.50;99.90
1137;DHT22;557;48.466;7.950;2022-11-04T01:53:20;10.40;99.90
1137;DHT22;557;48.466;7.950;2022-11-04T01:56:09;10.40;99.90
1137;DHT22;557;48.466;7.950;2022-11-04T01:59:01;10.40;99.90
1137;DHT22;557;48.466;7.950;2022-11-04T02:01:47;10.40;99.90
1137;DHT22;557;48.466;7.950;2022-11-04T02:04:33;10.40;99.90
1137;DHT22;557;48.466;7.950;2022-11-04T02:07:20;10.40;99.90
1137;DHT22;557;48.466;7.950;2022-11-04T02:10:06;10.40;99.90
1137;DHT22;557;48.466;7.950;2022-11-04T02:12:53;10.40;99.90
1137;DHT22;557;48.466;7.950;2022-11-04T02:15:43;10.40;99.90
1137;DHT22;557;48.466;7.950;2022-11-04T02:18:37;10.40;99.90
1137;DHT22;557;48.466;7.950;2022-11-04T02:22:05;10.40;99.90
1137;DHT22;557;48.466;7.950;2022-11-04T02:25:14;10.30;99.90
1137;DHT22;557;48.466;7.950;2022-11-04T02:28:31;10.40;99.90
1137;DHT22;557;48.466;7.950;2022-11-04T02:31:25;10.40;99.90
1137;DHT22;557;48.466;7.950;2022-11-04T02:34:18;10.30;99.90
1137;DHT22;557;48.466;7.950;2022-11-04T02:37:13;10.30;99.90
1137;DHT22;557;48.466;7.950;2022-11-04T02:40:12;10.20;99.90
1137;DHT22;557;48.466;7.950;2022-11-04T02:43:05;10.20;99.90
1137;DHT22;557;48.466;7.950;2022-11-04T02:45:59;10.20;99.90
1137;DHT22;557;48.466;7.950;2022-11-04T02:48:54;10.20;99.90
1137;DHT22;557;48.466;7.950;2022-11-04T02:51:45;10.20;99.90
1137;DHT22;557;48.466;7.950;2022-11-04T02:54:35;10.20;99.90
1137;DHT22;557;48.466;7.950;2022-11-04T02:57:24;10.10;99.90
1137;DHT22;557;48.466;7.950;2022-11-04T03:00:12;10.00;99.90
1137;DHT22;557;48.466;7.950;2022-11-04T03:03:01;10.00;99.90
1137;DHT22;557;48.466;7.950;2022-11-04T03:05:52;9.90;99.90
1137;DHT22;557;48.466;7.950;2022-11-04T03:08:42;9.80;99.90
1137;DHT22;557;48.466;7.950;2022-11-04T03:11:29;9.70;99.90
1137;DHT22;557;48.466;7.950;2022-11-04T03:14:19;9.60;99.90
1137;DHT22;557;48.466;7.950;2022-11-04T03:17:10;9.60;99.90
1137;DHT22;557;48.466;7.950;2022-11-04T03:19:58;9.70;99.90
1137;DHT22;557;48.466;7.950;2022-11-04T03:22:45;9.80;99.90
1137;DHT22;557;48.466;7.950;2022-11-04T03:25:37;9.80;99.90
1137;DHT22;557;48.466;7.950;2022-11-04T03:28:32;9.70;99.90
1137;DHT22;557;48.466;7.950;2022-11-04T03:31:25;9.70;99.90
1137;DHT22;557;48.466;7.950;2022-11-04T03:34:13;9.60;99.90
1137;DHT22;557;48.466;7.950;2022-11-04T03:36:59;9.60;99.90
1137;DHT22;557;48.466;7.950;2022-11-04T03:39:46;9.50;99.90
1137;DHT22;557;48.466;7.950;2022-11-04T03:42:35;9.50;99.90
1137;DHT22;557;48.466;7.950;2022-11-04T03:45:23;9.50;99.90
1137;DHT22;557;48.466;7.950;2022-11-04T03:48:10;9.50;99.90
1137;DHT22;557;48.466;7.950;2022-11-04T03:50:57;9.40;99.90
1137;DHT22;557;48.466;7.950;2022-11-04T03:53:43;9.50;99.90
1137;DHT22;557;48.466;7.950;2022-11-04T03:56:56;9.50;99.90
1137;DHT22;557;48.466;7.950;2022-11-04T04:00:04;9.50;99.90
1137;DHT22;557;48.466;7.950;2022-11-04T04:03:01;9.50;99.90
1137;DHT22;557;48.466;7.950;2022-11-04T04:05:51;9.40;99.90
1137;DHT22;557;48.466;7.950;2022-11-04T04:08:41;9.40;99.90
1137;DHT22;557;48.466;7.950;2022-11-04T04:11:31;9.40;99.90
1137;DHT22;557;48.466;7.950;2022-11-04T04:14:27;9.50;99.90
1137;DHT22;557;48.466;7.950;2022-11-04T04:17:33;9.40;99.90
1137;DHT22;557;48.466;7.950;2022-11-04T04:20:24;9.40;99.90
1137;DHT22;557;48.466;7.950;2022-11-04T04:23:14;9.40;99.90
1137;DHT22;557;48.466;7.950;2022-11-04T04:26:19;9.40;99.90
1137;DHT22;557;48.466;7.950;2022-11-04T04:29:27;9.40;99.90
1137;DHT22;557;48.466;7.950;2022-11-04T04:32:14;9.40;99.90
1137;DHT22;557;48.466;7.950;2022-11-04T04:35:00;9.40;99.90
1137;DHT22;557;48.466;7.950;2022-11-04T04:38:05;9.40;99.90
1137;DHT22;557;48.466;7.950;2022-11-04T04:41:15;9.50;99.90
1137;DHT22;557;48.466;7.950;2022-11-04T04:44:21;9.50;99.90
1137;DHT22;557;48.466;7.950;2022-11-04T04:47:43;9.50;99.90
1137;DHT22;557;48.466;7.950;2022-11-04T04:50:34;9.50;99.90
1137;DHT22;557;48.466;7.950;2022-11-04T04:53:21;9.50;99.90
1137;DHT22;557;48.466;7.950;2022-11-04T04:56:06;9.50;99.90
1137;DHT22;557;48.466;7.950;2022-11-04T04:58:52;9.40;99.90
1137;DHT22;557;48.466;7.950;2022-11-04T05:01:37;9.40;99.90
1137;DHT22;557;48.466;7.950;2022-11-04T05:04:24;9.40;99.90
1137;DHT22;557;48.466;7.950;2022-11-04T05:07:10;9.40;99.90
1137;DHT22;557;48.466;7.950;2022-11-04T05:09:55;9.30;99.90
1137;DHT22;557;48.466;7.950;2022-11-04T05:12:41;9.20;99.90
1137;DHT22;557;48.466;7.950;2022-11-04T05:15:45;9.30;99.90
1137;DHT22;557;48.466;7.950;2022-11-04T05:18:30;9.20;99.90
1137;DHT22;557;48.466;7.950;2022-11-04T05:21:17;9.30;99.90
1137;DHT22;557;48.466;7.950;2022-11-04T05:24:03;9.30;99.90
1137;DHT22;557;48.466;7.950;2022-11-04T05:26:49;9.30;99.90
1137;DHT22;557;48.466;7.950;2022-11-04T05:29:34;9.30;99.90
1137;DHT22;557;48.466;7.950;2022-11-04T05:32:20;9.30;99.90
1137;DHT22;557;48.466;7.950;2022-11-04T05:35:06;9.20;99.90
1137;DHT22;557;48.466;7.950;2022-11-04T05:37:54;9.20;99.90
1137;DHT22;557;48.466;7.950;2022-11-04T05:40:39;9.20;99.90
1137;DHT22;557;48.466;7.950;2022-11-04T05:43:24;9.00;99.90
1137;DHT22;557;48.466;7.950;2022-11-04T05:46:10;9.10;99.90
1137;DHT22;557;48.466;7.950;2022-11-04T05:48:55;9.10;99.90
1137;DHT22;557;48.466;7.950;2022-11-04T05:51:41;9.10;99.90
1137;DHT22;557;48.466;7.950;2022-11-04T05:54:29;9.20;99.90
1137;DHT22;557;48.466;7.950;2022-11-04T05:57:15;9.10;99.90
1137;DHT22;557;48.466;7.950;2022-11-04T06:00:00;9.10;99.90
1137;DHT22;557;48.466;7.950;2022-11-04T06:02:46;9.20;99.90
1137;DHT22;557;48.466;7.950;2022-11-04T06:05:31;9.20;99.90
1137;DHT22;557;48.466;7.950;2022-11-04T06:08:17;9.30;99.90
1137;DHT22;557;48.466;7.950;2022-11-04T06:11:04;9.30;99.90
1137;DHT22;557;48.466;7.950;2022-11-04T06:13:49;9.30;99.90
1137;DHT22;557;48.466;7.950;2022-11-04T06:16:35;9.30;99.90
1137;DHT22;557;48.466;7.950;2022-11-04T06:19:21;9.30;99.90
1137;DHT22;557;48.466;7.950;2022-11-04T06:22:07;9.40;99.90
1137;DHT22;557;48.466;7.950;2022-11-04T06:24:53;9.40;99.90
1137;DHT22;557;48.466;7.950;2022-11-04T06:27:40;9.40;99.90
1137;DHT22;557;48.466;7.950;2022-11-04T06:30:25;9.40;99.90
1137;DHT22;557;48.466;7.950;2022-11-04T06:33:11;9.40;99.90
1137;DHT22;557;48.466;7.950;2022-11-04T06:35:56;9.40;99.90
1137;DHT22;557;48.466;7.950;2022-11-04T06:38:42;9.40;99.90
1137;DHT22;557;48.466;7.950;2022-11-04T06:41:28;9.40;99.90
1137;DHT22;557;48.466;7.950;2022-11-04T06:44:15;9.40;99.90
1137;DHT22;557;48.466;7.950;2022-11-04T06:47:01;9.40;99.90
1137;DHT22;557;48.466;7.950;2022-11-04T06:49:46;9.40;99.90
1137;DHT22;557;48.466;7.950;2022-11-04T06:52:31;9.40;99.90
1137;DHT22;557;48.466;7.950;2022-11-04T06:55:17;9.50;99.90
1137;DHT22;557;48.466;7.950;2022-11-04T06:58:03;9.50;99.90
1137;DHT22;557;48.466;7.950;2022-11-04T07:00:53;9.50;99.90
1137;DHT22;557;48.466;7.950;2022-11-04T07:03:38;9.50;99.90
1137;DHT22;557;48.466;7.950;2022-11-04T07:06:24;9.60;99.90
1137;DHT22;557;48.466;7.950;2022-11-04T07:09:11;9.70;99.90
1137;DHT22;557;48.466;7.950;2022-11-04T07:11:57;9.70;99.90
1137;DHT22;557;48.466;7.950;2022-11-04T07:14:43;9.70;99.90
1137;DHT22;557;48.466;7.950;2022-11-04T07:17:30;9.70;99.90
1137;DHT22;557;48.466;7.950;2022-11-04T07:20:16;9.90;99.90
1137;DHT22;557;48.466;7.950;2022-11-04T07:23:01;9.90;99.90
1137;DHT22;557;48.466;7.950;2022-11-04T07:25:47;10.00;94.60
1137;DHT22;557;48.466;7.950;2022-11-04T07:28:32;10.00;93.80
1137;DHT22;557;48.466;7.950;2022-11-04T07:31:18;10.00;89.00
1137;DHT22;557;48.466;7.950;2022-11-04T07:34:06;10.10;51.00
1137;DHT22;557;48.466;7.950;2022-11-04T07:36:52;10.10;32.70
1137;DHT22;557;48.466;7.950;2022-11-04T07:39:38;10.20;24.20
1137;DHT22;557;48.466;7.950;2022-11-04T07:42:23;10.20;16.70
1137;DHT22;557;48.466;7.950;2022-11-04T07:45:09;10.30;26.30
1137;DHT22;557;48.466;7.950;2022-11-04T07:47:54;10.30;6.10
1137;DHT22;557;48.466;7.950;2022-11-04T07:50:41;10.30;1.00
1137;DHT22;557;48.466;7.950;2022-11-04T07:53:28;10.40;1.00
1137;DHT22;557;48.466;7.950;2022-11-04T07:56:14;10.40;15.00
1137;DHT22;557;48.466;7.950;2022-11-04T07:59:00;10.40;22.30
1137;DHT22;557;48.466;7.950;2022-11-04T08:01:45;10.50;1.00
1137;DHT22;557;48.466;7.950;2022-11-04T08:04:31;10.60;1.00
1137;DHT22;557;48.466;7.950;2022-11-04T08:07:17;10.50;1.00
1137;DHT22;557;48.466;7.950;2022-11-04T08:10:03;10.50;12.30
1137;DHT22;557;48.466;7.950;2022-11-04T08:12:50;10.60;1.00
1137;DHT22;557;48.466;7.950;2022-11-04T08:15:35;10.60;1.00
1137;DHT22;557;48.466;7.950;2022-11-04T08:18:21;10.60;1.00
1137;DHT22;557;48.466;7.950;2022-11-04T08:21:07;10.70;1.00
1137;DHT22;557;48.466;7.950;2022-11-04T08:23:54;10.80;1.00
1137;DHT22;557;48.466;7.950;2022-11-04T08:26:40;10.90;1.00
1137;DHT22;557;48.466;7.950;2022-11-04T08:29:26;10.90;1.00
1137;DHT22;557;48.466;7.950;2022-11-04T08:32:11;10.90;1.00
1137;DHT22;557;48.466;7.950;2022-11-04T08:34:57;10.90;1.00
1137;DHT22;557;48.466;7.950;2022-11-04T08:37:43;10.90;1.00
1137;DHT22;557;48.466;7.950;2022-11-04T08:40:30;10.90;1.00
1137;DHT22;557;48.466;7.950;2022-11-04T08:43:15;11.00;1.00
1137;DHT22;557;48.466;7.950;2022-11-04T08:46:01;11.10;1.00
1137;DHT22;557;48.466;7.950;2022-11-04T08:48:48;11.30;1.00
1137;DHT22;557;48.466;7.950;2022-11-04T08:51:35;11.30;1.00
1137;DHT22;557;48.466;7.950;2022-11-04T08:54:22;11.30;1.00
1137;DHT22;557;48.466;7.950;2022-11-04T08:57:09;11.30;1.00
1137;DHT22;557;48.466;7.950;2022-11-04T08:59:55;11.30;1.00
1137;DHT22;557;48.466;7.950;2022-11-04T09:02:40;11.40;1.00
1137;DHT22;557;48.466;7.950;2022-11-04T09:05:26;11.50;1.00
1137;DHT22;557;48.466;7.950;2022-11-04T09:08:12;11.70;1.00
1137;DHT22;557;48.466;7.950;2022-11-04T09:10:58;12.00;1.00
1137;DHT22;557;48.466;7.950;2022-11-04T09:13:46;12.10;99.90
1137;DHT22;557;48.466;7.950;2022-11-04T09:16:32;12.10;99.90
1137;DHT22;557;48.466;7.950;2022-11-04T09:19:18;12.20;99.90
1137;DHT22;557;48.466;7.950;2022-11-04T09:22:04;12.30;1.00
1137;DHT22;557;48.466;7.950;2022-11-04T09:24:50;12.20;99.90
1137;DHT22;557;48.466;7.950;2022-11-04T09:27:35;12.20;99.90
1137;DHT22;557;48.466;7.950;2022-11-04T09:30:22;12.20;1.00
1137;DHT22;557;48.466;7.950;2022-11-04T09:33:09;12.20;99.90
1137;DHT22;557;48.466;7.950;2022-11-04T09:35:54;12.20;1.00
1137;DHT22;557;48.466;7.950;2022-11-04T09:38:41;12.20;99.90
1137;DHT22;557;48.466;7.950;2022-11-04T09:41:46;12.30;1.00
1137;DHT22;557;48.466;7.950;2022-11-04T09:44:42;12.40;99.90
1137;DHT22;557;48.466;7.950;2022-11-04T09:47:31;12.50;99.90
1137;DHT22;557;48.466;7.950;2022-11-04T09:50:21;12.50;99.90
1137;DHT22;557;48.466;7.950;2022-11-04T09:53:14;12.50;99.90
1137;DHT22;557;48.466;7.950;2022-11-04T09:56:05;12.60;99.90
1137;DHT22;557;48.466;7.950;2022-11-04T09:58:55;12.60;99.90
1137;DHT22;557;48.466;7.950;2022-11-04T10:01:45;12.70;2.00
1137;DHT22;557;48.466;7.950;2022-11-04T10:04:44;12.70;99.90
1137;DHT22;557;48.466;7.950;2022-11-04T10:07:52;12.70;99.90
1137;DHT22;557;48.466;7.950;2022-11-04T10:10:45;12.60;99.90
1137;DHT22;557;48.466;7.950;2022-11-04T10:13:45;12.60;1.00
1137;DHT22;557;48.466;7.950;2022-11-04T10:16:41;12.60;99.90
1137;DHT22;557;48.466;7.950;2022-11-04T10:19:39;12.60;99.90
1137;DHT22;557;48.466;7.950;2022-11-04T10:22:31;12.60;99.90
1137;DHT22;557;48.466;7.950;2022-11-04T10:25:21;12.70;99.90
1137;DHT22;557;48.466;7.950;2022-11-04T10:28:10;12.60;1.00
1137;DHT22;557;48.466;7.950;2022-11-04T10:30:58;12.60;1.00
1137;DHT22;557;48.466;7.950;2022-11-04T10:33:46;12.60;5.90
1137;DHT22;557;48.466;7.950;2022-11-04T10:36:35;12.60;99.90
1137;DHT22;557;48.466;7.950;2022-11-04T10:39:26;12.60;1.00
1137;DHT22;557;48.466;7.950;2022-11-04T10:42:16;12.80;1.00
1137;DHT22;557;48.466;7.950;2022-11-04T10:45:02;12.80;1.00
1137;DHT22;557;48.466;7.950;2022-11-04T10:47:53;12.70;1.00
1137;DHT22;557;48.466;7.950;2022-11-04T10:50:45;12.70;1.00
1137;DHT22;557;48.466;7.950;2022-11-04T10:53:34;12.60;1.00
1137;DHT22;557;48.466;7.950;2022-11-04T10:56:27;12.60;1.00
1137;DHT22;557;48.466;7.950;2022-11-04T10:59:21;12.50;1.00
1137;DHT22;557;48.466;7.950;2022-11-04T11:02:08;12.70;1.00
1137;DHT22;557;48.466;7.950;2022-11-04T11:05:12;12.80;1.00
1137;DHT22;557;48.466;7.950;2022-11-04T11:07:57;12.90;99.90
1137;DHT22;557;48.466;7.950;2022-11-04T11:10:50;13.00;1.00
1137;DHT22;557;48.466;7.950;2022-11-04T11:13:38;12.90;1.00
1137;DHT22;557;48.466;7.950;2022-11-04T11:16:26;13.10;1.00
1137;DHT22;557;48.466;7.950;2022-11-04T11:19:15;13.10;1.00
1137;DHT22;557;48.466;7.950;2022-11-04T11:22:01;13.10;1.00
1137;DHT22;557;48.466;7.950;2022-11-04T11:24:47;13.00;1.00
1137;DHT22;557;48.466;7.950;2022-11-04T11:27:34;12.80;99.90
1137;DHT22;557;48.466;7.950;2022-11-04T11:30:25;12.60;1.00
1137;DHT22;557;48.466;7.950;2022-11-04T11:33:17;12.50;1.00
1137;DHT22;557;48.466;7.950;2022-11-04T11:36:07;12.40;99.90
1137;DHT22;557;48.466;7.950;2022-11-04T11:38:59;12.50;99.90
1137;DHT22;557;48.466;7.950;2022-11-04T11:41:52;12.40;99.90
1137;DHT22;557;48.466;7.950;2022-11-04T11:44:41;12.50;99.90
1137;DHT22;557;48.466;7.950;2022-11-04T11:47:34;12.50;1.00
1137;DHT22;557;48.466;7.950;2022-11-04T11:50:26;12.50;1.00
1137;DHT22;557;48.466;7.950;2022-11-04T11:53:17;12.50;99.90
1137;DHT22;557;48.466;7.950;2022-11-04T11:56:16;12.50;1.00
1137;DHT22;557;48.466;7.950;2022-11-04T11:59:07;12.60;99.90
1137;DHT22;557;48.466;7.950;2022-11-04T12:02:25;12.60;1.00
1137;DHT22;557;48.466;7.950;2022-11-04T12:05:14;12.70;99.90
1137;DHT22;557;48.466;7.950;2022-11-04T12:08:14;12.80;99.90
1137;DHT22;557;48.466;7.950;2022-11-04T12:11:08;12.90;99.90
1137;DHT22;557;48.466;7.950;2022-11-04T12:13:58;13.00;99.90
1137;DHT22;557;48.466;7.950;2022-11-04T12:16:52;13.00;1.00
1137;DHT22;557;48.466;7.950;2022-11-04T12:19:50;13.00;99.90
1137;DHT22;557;48.466;7.950;2022-11-04T12:22:42;12.90;1.00
1137;DHT22;557;48.466;7.950;2022-11-04T12:25:36;12.80;99.90
1137;DHT22;557;48.466;7.950;2022-11-04T12:28:29;12.80;1.00
1137;DHT22;557;48.466;7.950;2022-11-04T12:31:24;12.90;44.10
1137;DHT22;557;48.466;7.950;2022-11-04T12:34:25;12.90;1.00
1137;DHT22;557;48.466;7.950;2022-11-04T12:37:21;13.00;1.00
1137;DHT22;557;48.466;7.950;2022-11-04T12:40:19;13.10;1.00
1137;DHT22;557;48.466;7.950;2022-11-04T12:43:16;13.50;99.90
1137;DHT22;557;48.466;7.950;2022-11-04T12:46:10;13.90;99.90
1137;DHT22;557;48.466;7.950;2022-11-04T12:49:11;14.20;1.00
1137;DHT22;557;48.466;7.950;2022-11-04T12:52:07;14.70;99.90
1137;DHT22;557;48.466;7.950;2022-11-04T12:55:22;15.10;99.90
1137;DHT22;557;48.466;7.950;2022-11-04T12:58:20;15.20;82.30
1137;DHT22;557;48.466;7.950;2022-11-04T13:01:10;14.80;8.60
1137;DHT22;557;48.466;7.950;2022-11-04T13:04:00;14.40;1.00
1137;DHT22;557;48.466;7.950;2022-11-04T13:06:58;14.10;1.00
1137;DHT22;557;48.466;7.950;2022-11-04T13:09:51;14.30;1.00
1137;DHT22;557;48.466;7.950;2022-11-04T13:12:42;14.40;1.00
1137;DHT22;557;48.466;7.950;2022-11-04T13:15:32;14.30;1.00
1137;DHT22;557;48.466;7.950;2022-11-04T13:18:22;13.90;1.00
1137;DHT22;557;48.466;7.950;2022-11-04T13:21:14;13.70;1.00
1137;DHT22;557;48.466;7.950;2022-11-04T13:24:03;13.70;99.90
1137;DHT22;557;48.466;7.950;2022-11-04T13:26:51;13.80;34.90
1137;DHT22;557;48.466;7.950;2022-11-04T13:29:39;14.30;1.00
1137;DHT22;557;48.466;7.950;2022-11-04T13:32:27;14.40;1.00
1137;DHT22;557;48.466;7.950;2022-11-04T13:35:22;14.50;1.00
1137;DHT22;557;48.466;7.950;2022-11-04T13:38:12;14.90;1.00
1137;DHT22;557;48.466;7.950;2022-11-04T13:41:18;15.30;1.00
1137;DHT22;557;48.466;7.950;2022-11-04T13:44:13;15.50;99.90
1137;DHT22;557;48.466;7.950;2022-11-04T13:47:10;16.10;99.90
1137;DHT22;557;48.466;7.950;2022-11-04T13:49:57;16.30;99.90
1137;DHT22;557;48.466;7.950;2022-11-04T13:52:47;15.50;99.90
1137;DHT22;557;48.466;7.950;2022-11-04T13:55:34;14.80;99.90
1137;DHT22;557;48.466;7.950;2022-11-04T13:58:24;14.20;1.00
1137;DHT22;557;48.466;7.950;2022-11-04T14:01:12;13.80;1.00
1137;DHT22;557;48.466;7.950;2022-11-04T14:04:14;13.50;74.30
1137;DHT22;557;48.466;7.950;2022-11-04T14:07:05;13.50;1.00
1137;DHT22;557;48.466;7.950;2022-11-04T14:09:53;13.30;24.70
1137;DHT22;557;48.466;7.950;2022-11-04T14:12:39;13.20;99.90
1137;DHT22;557;48.466;7.950;2022-11-04T14:18:48;13.10;99.90
1137;DHT22;557;48.466;7.950;2022-11-04T14:22:06;13.10;99.90
1137;DHT22;557;48.466;7.950;2022-11-04T14:25:00;13.10;99.90
1137;DHT22;557;48.466;7.950;2022-11-04T14:27:48;13.20;1.00
1137;DHT22;557;48.466;7.950;2022-11-04T14:30:49;13.90;1.00
1137;DHT22;557;48.466;7.950;2022-11-04T14:33:40;14.90;99.90
1137;DHT22;557;48.466;7.950;2022-11-04T14:36:37;15.50;59.80
1137;DHT22;557;48.466;7.950;2022-11-04T14:39:27;15.80;5.60
1137;DHT22;557;48.466;7.950;2022-11-04T14:42:41;15.90;1.00
1137;DHT22;557;48.466;7.950;2022-11-04T14:45:32;16.20;1.00
1137;DHT22;557;48.466;7.950;2022-11-04T14:48:22;16.30;17.70
1137;DHT22;557;48.466;7.950;2022-11-04T14:51:20;16.00;1.00
1137;DHT22;557;48.466;7.950;2022-11-04T14:54:15;15.70;15.30
1137;DHT22;557;48.466;7.950;2022-11-04T14:57:12;15.50;1.00
1137;DHT22;557;48.466;7.950;2022-11-04T14:59:58;15.10;1.00
1137;DHT22;557;48.466;7.950;2022-11-04T15:02:43;14.60;1.00
1137;DHT22;557;48.466;7.950;2022-11-04T15:05:29;14.30;41.60
1137;DHT22;557;48.466;7.950;2022-11-04T15:08:27;14.10;99.90
1137;DHT22;557;48.466;7.950;2022-11-04T15:11:15;13.90;99.90
1137;DHT22;557;48.466;7.950;2022-11-04T15:14:14;13.80;38.90
1137;DHT22;557;48.466;7.950;2022-11-04T15:17:01;13.80;1.00
1137;DHT22;557;48.466;7.950;2022-11-04T15:19:48;13.70;1.00
1137;DHT22;557;48.466;7.950;2022-11-04T15:22:34;13.60;1.00
1137;DHT22;557;48.466;7.950;2022-11-04T15:25:21;13.50;99.90
1137;DHT22;557;48.466;7.950;2022-11-04T15:28:15;13.40;99.90
1137;DHT22;557;48.466;7.950;2022-11-04T15:31:05;13.30;99.90
1137;DHT22;557;48.466;7.950;2022-11-04T15:33:53;13.10;99.90
1137;DHT22;557;48.466;7.950;2022-11-04T15:36:41;12.90;99.90
1137;DHT22;557;48.466;7.950;2022-11-04T15:39:29;12.80;1.00
1137;DHT22;557;48.466;7.950;2022-11-04T15:42:21;12.60;1.00
1137;DHT22;557;48.466;7.950;2022-11-04T15:45:34;12.50;1.00
1137;DHT22;557;48.466;7.950;2022-11-04T15:48:29;12.40;1.00
1137;DHT22;557;48.466;7.950;2022-11-04T15:51:18;12.30;1.00
1137;DHT22;557;48.466;7.950;2022-11-04T15:54:15;12.20;1.00
1137;DHT22;557;48.466;7.950;2022-11-04T15:57:04;12.10;1.00
1137;DHT22;557;48.466;7.950;2022-11-04T15:59:54;12.10;1.00
1137;DHT22;557;48.466;7.950;2022-11-04T16:02:45;12.00;1.00
1137;DHT22;557;48.466;7.950;2022-11-04T16:05:34;12.00;1.00
1137;DHT22;557;48.466;7.950;2022-11-04T16:08:22;11.90;24.80
1137;DHT22;557;48.466;7.950;2022-11-04T16:11:13;11.90;49.40
1137;DHT22;557;48.466;7.950;2022-11-04T16:14:20;11.90;1.00
1137;DHT22;557;48.466;7.950;2022-11-04T16:17:09;12.00;1.00
1137;DHT22;557;48.466;7.950;2022-11-04T16:19:57;12.10;1.00
1137;DHT22;557;48.466;7.950;2022-11-04T16:22:46;12.00;1.00
1137;DHT22;557;48.466;7.950;2022-11-04T16:25:33;11.90;1.00
1137;DHT22;557;48.466;7.950;2022-11-04T16:28:19;11.90;91.40
1137;DHT22;557;48.466;7.950;2022-11-04T16:31:07;11.80;99.90
1137;DHT22;557;48.466;7.950;2022-11-04T16:33:53;11.80;8.20
1137;DHT22;557;48.466;7.950;2022-11-04T16:36:39;11.80;1.00
1137;DHT22;557;48.466;7.950;2022-11-04T16:39:26;11.80;1.00
1137;DHT22;557;48.466;7.950;2022-11-04T16:42:13;11.70;55.40
1137;DHT22;557;48.466;7.950;2022-11-04T16:45:02;11.60;99.90
1137;DHT22;557;48.466;7.950;2022-11-04T16:47:48;11.50;99.90
1137;DHT22;557;48.466;7.950;2022-11-04T16:50:34;11.40;99.90
1137;DHT22;557;48.466;7.950;2022-11-04T16:53:19;11.30;99.90
1137;DHT22;557;48.466;7.950;2022-11-04T16:56:07;11.30;99.90
1137;DHT22;557;48.466;7.950;2022-11-04T16:58:53;11.20;99.90
1137;DHT22;557;48.466;7.950;2022-11-04T17:01:38;11.20;99.90
1137;DHT22;557;48.466;7.950;2022-11-04T17:04:24;11.20;99.90
1137;DHT22;557;48.466;7.950;2022-11-04T17:07:10;11.20;99.90
1137;DHT22;557;48.466;7.950;2022-11-04T17:09:56;11.20;99.90
1137;DHT22;557;48.466;7.950;2022-11-04T17:12:43;11.10;99.90
1137;DHT22;557;48.466;7.950;2022-11-04T17:15:29;11.10;99.90
1137;DHT22;557;48.466;7.950;2022-11-04T17:18:15;11.00;99.90
1137;DHT22;557;48.466;7.950;2022-11-04T17:21:04;11.00;99.90
1137;DHT22;557;48.466;7.950;2022-11-04T17:23:50;11.00;99.90
1137;DHT22;557;48.466;7.950;2022-11-04T17:26:35;11.00;99.90
1137;DHT22;557;48.466;7.950;2022-11-04T17:29:22;11.00;99.90
1137;DHT22;557;48.466;7.950;2022-11-04T17:32:09;11.00;99.90
1137;DHT22;557;48.466;7.950;2022-11-04T17:34:54;11.00;99.90
1137;DHT22;557;48.466;7.950;2022-11-04T17:37:40;10.90;99.90
1137;DHT22;557;48.466;7.950;2022-11-04T17:40:25;10.90;99.90
1137;DHT22;557;48.466;7.950;2022-11-04T17:43:11;10.90;99.90
1137;DHT22;557;48.466;7.950;2022-11-04T17:46:16;10.80;99.90
1137;DHT22;557;48.466;7.950;2022-11-04T17:49:22;10.80;99.90
1137;DHT22;557;48.466;7.950;2022-11-04T17:52:08;10.70;99.90
1137;DHT22;557;48.466;7.950;2022-11-04T17:54:54;10.80;99.90
1137;DHT22;557;48.466;7.950;2022-11-04T17:57:39;10.80;99.90
1137;DHT22;557;48.466;7.950;2022-11-04T18:00:25;10.70;99.90
1137;DHT22;557;48.466;7.950;2022-11-04T18:03:14;10.70;99.90
1137;DHT22;557;48.466;7.950;2022-11-04T18:05:59;10.80;99.90
1137;DHT22;557;48.466;7.950;2022-11-04T18:08:45;10.70;99.90
1137;DHT22;557;48.466;7.950;2022-11-04T18:11:31;10.80;99.90
1137;DHT22;557;48.466;7.950;2022-11-04T18:14:34;10.70;99.90
1137;DHT22;557;48.466;7.950;2022-11-04T18:17:19;10.70;99.90
1137;DHT22;557;48.466;7.950;2022-11-04T18:20:11;10.70;99.90
1137;DHT22;557;48.466;7.950;2022-11-04T18:22:58;10.70;99.90
1137;DHT22;557;48.466;7.950;2022-11-04T18:25:43;10.70;99.90
1137;DHT22;557;48.466;7.950;2022-11-04T18:28:29;10.60;99.90
1137;DHT22;557;48.466;7.950;2022-11-04T18:31:21;10.50;99.90
1137;DHT22;557;48.466;7.950;2022-11-04T18:34:10;10.50;99.90
1137;DHT22;557;48.466;7.950;2022-11-04T18:36:57;10.50;99.90
1137;DHT22;557;48.466;7.950;2022-11-04T18:39:43;10.40;99.90
1137;DHT22;557;48.466;7.950;2022-11-04T18:42:29;10.40;99.90
1137;DHT22;557;48.466;7.950;2022-11-04T18:45:14;10.40;99.90
1137;DHT22;557;48.466;7.950;2022-11-04T18:48:00;10.40;99.90
1137;DHT22;557;48.466;7.950;2022-11-04T18:50:45;10.40;99.90
1137;DHT22;557;48.466;7.950;2022-11-04T18:53:33;10.40;99.90
1137;DHT22;557;48.466;7.950;2022-11-04T18:56:20;10.40;99.90
1137;DHT22;557;48.466;7.950;2022-11-04T18:59:07;10.30;99.90
1137;DHT22;557;48.466;7.950;2022-11-04T19:01:53;10.30;99.90
1137;DHT22;557;48.466;7.950;2022-11-04T19:04:39;10.30;99.90